sensor_id;sensor_type;location;lat;lon;timestamp;P1;durP1;ratioP1;P2;durP2;ratioP2
3726;SDS011;1879;45.876;12.300;2023-04-01T00:00:59;35.10;;;29.97;;
3726;SDS011;1879;45.876;12.300;2023-04-01T00:03:29;40.30;;;32.30;;
3726;SDS011;1879;45.876;12.300;2023-04-01T00:05:59;31.07;;;27.87;;
3726;SDS011;1879;45.876;12.300;2023-04-01T00:08:33;33.17;;;27.63;;
3726;SDS011;1879;45.876;12.300;2023-04-01T00:11:03;22.90;;;20.23;;
3726;SDS011;1879;45.876;12.300;2023-04-01T00:13:31;29.20;;;21.77;;
3726;SDS011;1879;45.876;12.300;2023-04-01T00:18:51;24.77;;;22.13;;
3726;SDS011;1879;45.876;12.300;2023-04-01T00:21:34;20.87;;;17.17;;
3726;SDS011;1879;45.876;12.300;2023-04-01T00:24:27;22.67;;;19.17;;
3726;SDS011;1879;45.876;12.300;2023-04-01T00:27:15;20.80;;;18.63;;
3726;SDS011;1879;45.876;12.300;2023-04-01T00:29:55;17.50;;;15.60;;
3726;SDS011;1879;45.876;12.300;2023-04-01T00:35:12;15.57;;;13.53;;
3726;SDS011;1879;45.876;12.300;2023-04-01T00:38:11;12.30;;;10.27;;
3726;SDS011;1879;45.876;12.300;2023-04-01T00:40:48;11.80;;;10.53;;
3726;SDS011;1879;45.876;12.300;2023-04-01T00:43:45;11.90;;;10.70;;
3726;SDS011;1879;45.876;12.300;2023-04-01T00:53:32;12.50;;;11.20;;
3726;SDS011;1879;45.876;12.300;2023-04-01T00:59:25;14.43;;;12.93;;
3726;SDS011;1879;45.876;12.300;2023-04-01T01:05:19;16.07;;;13.07;;
3726;SDS011;1879;45.876;12.300;2023-04-01T01:08:02;16.50;;;14.87;;
3726;SDS011;1879;45.876;12.300;2023-04-01T01:13:36;16.57;;;14.87;;
3726;SDS011;1879;45.876;12.300;2023-04-01T01:16:54;16.10;;;14.47;;
3726;SDS011;1879;45.876;12.300;2023-04-01T01:33:35;14.60;;;13.10;;
3726;SDS011;1879;45.876;12.300;2023-04-01T01:36:31;14.37;;;12.90;;
3726;SDS011;1879;45.876;12.300;2023-04-01T01:39:14;17.63;;;13.13;;
3726;SDS011;1879;45.876;12.300;2023-04-01T01:43:42;14.20;;;12.70;;
3726;SDS011;1879;45.876;12.300;2023-04-01T01:47:56;14.40;;;12.90;;
3726;SDS011;1879;45.876;12.300;2023-04-01T01:48:14;15.80;;;13.70;;
3726;SDS011;1879;45.876;12.300;2023-04-01T01:54:04;17.57;;;15.43;;
3726;SDS011;1879;45.876;12.300;2023-04-01T01:56:34;16.33;;;14.63;;
3726;SDS011;1879;45.876;12.300;2023-04-01T01:59:07;17.83;;;15.40;;
3726;SDS011;1879;45.876;12.300;2023-04-01T02:01:59;18.17;;;15.47;;
3726;SDS011;1879;45.876;12.300;2023-04-01T02:05:04;22.50;;;15.30;;
3726;SDS011;1879;45.876;12.300;2023-04-01T02:11:13;16.03;;;14.43;;
3726;SDS011;1879;45.876;12.300;2023-04-01T02:17:18;16.20;;;14.60;;
3726;SDS011;1879;45.876;12.300;2023-04-01T02:30:38;16.33;;;14.67;;
3726;SDS011;1879;45.876;12.300;2023-04-01T02:43:00;15.33;;;13.80;;
3726;SDS011;1879;45.876;12.300;2023-04-01T02:49:30;14.30;;;12.90;;
3726;SDS011;1879;45.876;12.300;2023-04-01T02:56:07;14.02;;;12.45;;
3726;SDS011;1879;45.876;12.300;2023-04-01T02:59:18;13.67;;;12.30;;
3726;SDS011;1879;45.876;12.300;2023-04-01T03:02:06;13.90;;;12.50;;
3726;SDS011;1879;45.876;12.300;2023-04-01T03:05:05;9.82;;;8.82;;
3726;SDS011;1879;45.876;12.300;2023-04-01T03:08:05;8.60;;;7.80;;
3726;SDS011;1879;45.876;12.300;2023-04-01T03:10:47;8.70;;;7.90;;
3726;SDS011;1879;45.876;12.300;2023-04-01T03:13:58;9.73;;;8.82;;
3726;SDS011;1879;45.876;12.300;2023-04-01T03:16:42;10.98;;;7.75;;
3726;SDS011;1879;45.876;12.300;2023-04-01T03:19:45;9.30;;;8.40;;
3726;SDS011;1879;45.876;12.300;2023-04-01T03:23:01;12.07;;;10.07;;
3726;SDS011;1879;45.876;12.300;2023-04-01T03:29:32;13.80;;;12.30;;
3726;SDS011;1879;45.876;12.300;2023-04-01T03:36:06;13.40;;;12.00;;
3726;SDS011;1879;45.876;12.300;2023-04-01T03:39:07;13.30;;;10.80;;
3726;SDS011;1879;45.876;12.300;2023-04-01T03:41:51;13.80;;;11.30;;
3726;SDS011;1879;45.876;12.300;2023-04-01T03:44:25;13.27;;;10.90;;
3726;SDS011;1879;45.876;12.300;2023-04-01T04:00:54;10.10;;;9.10;;
3726;SDS011;1879;45.876;12.300;2023-04-01T04:03:22;11.60;;;10.50;;
3726;SDS011;1879;45.876;12.300;2023-04-01T04:05:51;12.50;;;11.20;;
3726;SDS011;1879;45.876;12.300;2023-04-01T04:08:21;12.47;;;11.27;;
3726;SDS011;1879;45.876;12.300;2023-04-01T04:10:54;11.83;;;10.30;;
3726;SDS011;1879;45.876;12.300;2023-04-01T04:17:32;9.87;;;8.97;;
3726;SDS011;1879;45.876;12.300;2023-04-01T04:21:10;9.77;;;8.87;;
3726;SDS011;1879;45.876;12.300;2023-04-01T04:23:52;9.03;;;8.23;;
3726;SDS011;1879;45.876;12.300;2023-04-01T04:26:41;8.50;;;7.70;;
3726;SDS011;1879;45.876;12.300;2023-04-01T04:29:16;11.30;;;8.63;;
3726;SDS011;1879;45.876;12.300;2023-04-01T04:35:14;9.60;;;8.63;;
3726;SDS011;1879;45.876;12.300;2023-04-01T04:38:31;7.40;;;6.73;;
3726;SDS011;1879;45.876;12.300;2023-04-01T05:02:08;7.93;;;6.93;;
3726;SDS011;1879;45.876;12.300;2023-04-01T05:04:37;5.37;;;4.97;;
3726;SDS011;1879;45.876;12.300;2023-04-01T05:23:40;4.20;;;3.80;;
3726;SDS011;1879;45.876;12.300;2023-04-01T05:26:48;6.80;;;6.20;;
3726;SDS011;1879;45.876;12.300;2023-04-01T05:30:21;8.00;;;7.03;;
3726;SDS011;1879;45.876;12.300;2023-04-01T05:34:05;6.80;;;5.93;;
3726;SDS011;1879;45.876;12.300;2023-04-01T05:36:50;7.13;;;6.43;;
3726;SDS011;1879;45.876;12.300;2023-04-01T05:39:26;7.47;;;6.77;;
3726;SDS011;1879;45.876;12.300;2023-04-01T05:45:01;7.70;;;7.00;;
3726;SDS011;1879;45.876;12.300;2023-04-01T05:57:18;7.37;;;6.60;;
3726;SDS011;1879;45.876;12.300;2023-04-01T06:04:18;9.73;;;8.43;;
3726;SDS011;1879;45.876;12.300;2023-04-01T06:07:28;8.40;;;7.60;;
3726;SDS011;1879;45.876;12.300;2023-04-01T06:10:22;8.77;;;6.90;;
3726;SDS011;1879;45.876;12.300;2023-04-01T06:19:49;9.10;;;6.77;;
3726;SDS011;1879;45.876;12.300;2023-04-01T06:29:37;7.97;;;6.60;;
3726;SDS011;1879;45.876;12.300;2023-04-01T06:47:20;6.80;;;6.13;;
3726;SDS011;1879;45.876;12.300;2023-04-01T06:50:05;6.20;;;5.60;;
3726;SDS011;1879;45.876;12.300;2023-04-01T06:56:44;5.77;;;5.10;;
3726;SDS011;1879;45.876;12.300;2023-04-01T06:59:22;5.30;;;4.20;;
3726;SDS011;1879;45.876;12.300;2023-04-01T07:02:11;4.30;;;3.90;;
3726;SDS011;1879;45.876;12.300;2023-04-01T07:07:42;4.70;;;4.30;;
3726;SDS011;1879;45.876;12.300;2023-04-01T07:10:14;5.30;;;4.80;;
3726;SDS011;1879;45.876;12.300;2023-04-01T07:12:48;7.37;;;4.03;;
3726;SDS011;1879;45.876;12.300;2023-04-01T07:15:24;4.55;;;4.05;;
3726;SDS011;1879;45.876;12.300;2023-04-01T07:18:10;5.20;;;4.70;;
3726;SDS011;1879;45.876;12.300;2023-04-01T07:21:02;4.67;;;4.30;;
3726;SDS011;1879;45.876;12.300;2023-04-01T07:23:39;5.07;;;4.67;;
3726;SDS011;1879;45.876;12.300;2023-04-01T07:26:29;4.30;;;4.00;;
3726;SDS011;1879;45.876;12.300;2023-04-01T07:29:00;4.97;;;4.20;;
3726;SDS011;1879;45.876;12.300;2023-04-01T07:32:12;5.87;;;4.70;;
3726;SDS011;1879;45.876;12.300;2023-04-01T07:35:22;3.93;;;3.53;;
3726;SDS011;1879;45.876;12.300;2023-04-01T07:38:13;5.00;;;4.60;;
3726;SDS011;1879;45.876;12.300;2023-04-01T07:40:49;4.50;;;4.10;;
3726;SDS011;1879;45.876;12.300;2023-04-01T07:46:39;4.80;;;4.30;;
3726;SDS011;1879;45.876;12.300;2023-04-01T07:49:35;4.43;;;4.03;;
3726;SDS011;1879;45.876;12.300;2023-04-01T07:52:12;5.20;;;4.00;;
3726;SDS011;1879;45.876;12.300;2023-04-01T07:54:56;4.70;;;3.90;;
3726;SDS011;1879;45.876;12.300;2023-04-01T07:57:30;4.70;;;4.30;;
3726;SDS011;1879;45.876;12.300;2023-04-01T08:00:10;7.13;;;4.70;;
3726;SDS011;1879;45.876;12.300;2023-04-01T08:05:49;6.80;;;4.87;;
3726;SDS011;1879;45.876;12.300;2023-04-01T08:08:26;5.23;;;4.63;;
3726;SDS011;1879;45.876;12.300;2023-04-01T08:11:14;4.33;;;3.30;;
3726;SDS011;1879;45.876;12.300;2023-04-01T08:14:29;4.40;;;4.00;;
3726;SDS011;1879;45.876;12.300;2023-04-01T08:17:12;4.37;;;3.40;;
3726;SDS011;1879;45.876;12.300;2023-04-01T08:19:59;3.37;;;3.07;;
3726;SDS011;1879;45.876;12.300;2023-04-01T08:26:03;4.00;;;2.93;;
3726;SDS011;1879;45.876;12.300;2023-04-01T08:28:39;3.60;;;3.07;;
3726;SDS011;1879;45.876;12.300;2023-04-01T08:31:13;4.67;;;3.40;;
3726;SDS011;1879;45.876;12.300;2023-04-01T08:33:46;3.77;;;3.13;;
3726;SDS011;1879;45.876;12.300;2023-04-01T08:36:19;3.87;;;3.17;;
3726;SDS011;1879;45.876;12.300;2023-04-01T08:38:53;3.03;;;2.73;;
3726;SDS011;1879;45.876;12.300;2023-04-01T08:44:40;6.50;;;3.13;;
3726;SDS011;1879;45.876;12.300;2023-04-01T08:47:44;3.40;;;3.10;;
3726;SDS011;1879;45.876;12.300;2023-04-01T08:50:39;3.13;;;2.65;;
3726;SDS011;1879;45.876;12.300;2023-04-01T09:00:38;4.47;;;3.67;;
3726;SDS011;1879;45.876;12.300;2023-04-01T09:03:38;2.90;;;2.70;;
3726;SDS011;1879;45.876;12.300;2023-04-01T09:06:48;3.73;;;3.10;;
3726;SDS011;1879;45.876;12.300;2023-04-01T09:09:39;3.93;;;3.60;;
3726;SDS011;1879;45.876;12.300;2023-04-01T09:12:32;3.60;;;3.20;;
3726;SDS011;1879;45.876;12.300;2023-04-01T09:21:23;4.15;;;2.90;;
3726;SDS011;1879;45.876;12.300;2023-04-01T09:27:14;3.67;;;3.37;;
3726;SDS011;1879;45.876;12.300;2023-04-01T09:30:10;4.50;;;4.10;;
3726;SDS011;1879;45.876;12.300;2023-04-01T09:33:00;5.47;;;4.73;;
3726;SDS011;1879;45.876;12.300;2023-04-01T09:35:50;4.57;;;4.17;;
3726;SDS011;1879;45.876;12.300;2023-04-01T09:38:33;4.17;;;3.70;;
3726;SDS011;1879;45.876;12.300;2023-04-01T09:41:14;5.50;;;4.90;;
3726;SDS011;1879;45.876;12.300;2023-04-01T09:43:58;4.53;;;3.85;;
3726;SDS011;1879;45.876;12.300;2023-04-01T09:46:37;4.80;;;4.30;;
3726;SDS011;1879;45.876;12.300;2023-04-01T09:52:18;5.10;;;3.93;;
3726;SDS011;1879;45.876;12.300;2023-04-01T10:04:25;3.90;;;3.60;;
3726;SDS011;1879;45.876;12.300;2023-04-01T10:10:39;4.00;;;3.40;;
3726;SDS011;1879;45.876;12.300;2023-04-01T10:16:43;3.83;;;3.53;;
3726;SDS011;1879;45.876;12.300;2023-04-01T10:31:55;4.47;;;3.40;;
3726;SDS011;1879;45.876;12.300;2023-04-01T10:41:04;3.40;;;3.10;;
3726;SDS011;1879;45.876;12.300;2023-04-01T10:53:49;4.40;;;3.47;;
3726;SDS011;1879;45.876;12.300;2023-04-01T10:56:45;3.87;;;3.40;;
3726;SDS011;1879;45.876;12.300;2023-04-01T10:59:28;3.80;;;3.50;;
3726;SDS011;1879;45.876;12.300;2023-04-01T11:05:42;2.47;;;2.27;;
3726;SDS011;1879;45.876;12.300;2023-04-01T11:08:54;2.40;;;2.20;;
3726;SDS011;1879;45.876;12.300;2023-04-01T11:11:59;3.27;;;2.17;;
3726;SDS011;1879;45.876;12.300;2023-04-01T11:24:27;3.97;;;2.90;;
3726;SDS011;1879;45.876;12.300;2023-04-01T11:27:15;2.80;;;2.60;;
3726;SDS011;1879;45.876;12.300;2023-04-01T11:32:47;2.80;;;2.60;;
3726;SDS011;1879;45.876;12.300;2023-04-01T11:38:22;2.47;;;2.27;;
3726;SDS011;1879;45.876;12.300;2023-04-01T11:41:11;3.10;;;2.80;;
3726;SDS011;1879;45.876;12.300;2023-04-01T11:43:53;3.45;;;3.15;;
3726;SDS011;1879;45.876;12.300;2023-04-01T11:46:33;3.03;;;2.83;;
3726;SDS011;1879;45.876;12.300;2023-04-01T11:49:17;3.97;;;3.67;;
3726;SDS011;1879;45.876;12.300;2023-04-01T11:52:01;3.37;;;3.10;;
3726;SDS011;1879;45.876;12.300;2023-04-01T11:54:43;3.50;;;3.20;;
3726;SDS011;1879;45.876;12.300;2023-04-01T11:57:43;4.17;;;3.50;;
3726;SDS011;1879;45.876;12.300;2023-04-01T12:00:24;4.40;;;4.10;;
3726;SDS011;1879;45.876;12.300;2023-04-01T12:03:14;3.83;;;3.53;;
3726;SDS011;1879;45.876;12.300;2023-04-01T12:05:58;3.90;;;3.50;;
3726;SDS011;1879;45.876;12.300;2023-04-01T12:08:36;4.50;;;4.17;;
3726;SDS011;1879;45.876;12.300;2023-04-01T12:11:14;4.20;;;3.80;;
3726;SDS011;1879;45.876;12.300;2023-04-01T12:13:47;3.87;;;3.57;;
3726;SDS011;1879;45.876;12.300;2023-04-01T12:16:28;4.13;;;3.80;;
3726;SDS011;1879;45.876;12.300;2023-04-01T12:19:09;4.37;;;3.97;;
3726;SDS011;1879;45.876;12.300;2023-04-01T12:21:45;4.43;;;4.13;;
3726;SDS011;1879;45.876;12.300;2023-04-01T12:24:44;5.83;;;3.97;;
3726;SDS011;1879;45.876;12.300;2023-04-01T12:27:27;4.10;;;3.80;;
3726;SDS011;1879;45.876;12.300;2023-04-01T12:30:09;4.53;;;4.20;;
3726;SDS011;1879;45.876;12.300;2023-04-01T12:32:59;3.90;;;3.60;;
3726;SDS011;1879;45.876;12.300;2023-04-01T12:35:42;4.90;;;4.50;;
3726;SDS011;1879;45.876;12.300;2023-04-01T12:38:24;4.10;;;3.80;;
3726;SDS011;1879;45.876;12.300;2023-04-01T12:41:04;4.17;;;3.87;;
3726;SDS011;1879;45.876;12.300;2023-04-01T12:46:40;3.72;;;3.42;;
3726;SDS011;1879;45.876;12.300;2023-04-01T12:49:25;4.20;;;3.77;;
3726;SDS011;1879;45.876;12.300;2023-04-01T12:52:09;3.40;;;3.00;;
3726;SDS011;1879;45.876;12.300;2023-04-01T12:54:46;3.83;;;3.53;;
3726;SDS011;1879;45.876;12.300;2023-04-01T12:57:45;4.00;;;3.70;;
3726;SDS011;1879;45.876;12.300;2023-04-01T13:00:44;4.27;;;4.07;;
3726;SDS011;1879;45.876;12.300;2023-04-01T13:03:25;3.53;;;3.33;;
3726;SDS011;1879;45.876;12.300;2023-04-01T13:09:07;4.17;;;3.87;;
3726;SDS011;1879;45.876;12.300;2023-04-01T13:11:47;3.53;;;3.33;;
3726;SDS011;1879;45.876;12.300;2023-04-01T13:14:35;3.50;;;3.20;;
3726;SDS011;1879;45.876;12.300;2023-04-01T13:17:16;4.17;;;3.87;;
3726;SDS011;1879;45.876;12.300;2023-04-01T13:19:50;3.97;;;3.67;;
3726;SDS011;1879;45.876;12.300;2023-04-01T13:22:28;3.93;;;3.63;;
3726;SDS011;1879;45.876;12.300;2023-04-01T13:25:04;4.70;;;4.30;;
3726;SDS011;1879;45.876;12.300;2023-04-01T13:27:42;3.80;;;3.57;;
3726;SDS011;1879;45.876;12.300;2023-04-01T13:30:19;7.40;;;5.57;;
3726;SDS011;1879;45.876;12.300;2023-04-01T13:32:55;6.72;;;4.20;;
3726;SDS011;1879;45.876;12.300;2023-04-01T13:35:30;4.10;;;3.80;;
3726;SDS011;1879;45.876;12.300;2023-04-01T13:38:16;4.95;;;4.15;;
3726;SDS011;1879;45.876;12.300;2023-04-01T13:40:58;5.37;;;4.90;;
3726;SDS011;1879;45.876;12.300;2023-04-01T13:43:34;5.90;;;4.80;;
3726;SDS011;1879;45.876;12.300;2023-04-01T13:46:13;4.33;;;4.03;;
3726;SDS011;1879;45.876;12.300;2023-04-01T13:52:18;4.53;;;4.23;;
3726;SDS011;1879;45.876;12.300;2023-04-01T13:55:14;4.47;;;4.17;;
3726;SDS011;1879;45.876;12.300;2023-04-01T13:57:59;4.33;;;4.07;;
3726;SDS011;1879;45.876;12.300;2023-04-01T14:00:46;4.20;;;4.00;;
3726;SDS011;1879;45.876;12.300;2023-04-01T14:06:31;4.30;;;4.00;;
3726;SDS011;1879;45.876;12.300;2023-04-01T14:09:11;4.90;;;4.60;;
3726;SDS011;1879;45.876;12.300;2023-04-01T14:12:03;5.80;;;5.40;;
3726;SDS011;1879;45.876;12.300;2023-04-01T14:14:43;5.63;;;5.13;;
3726;SDS011;1879;45.876;12.300;2023-04-01T14:17:36;6.60;;;6.10;;
3726;SDS011;1879;45.876;12.300;2023-04-01T14:20:28;5.50;;;5.10;;
3726;SDS011;1879;45.876;12.300;2023-04-01T14:29:05;6.57;;;6.07;;
3726;SDS011;1879;45.876;12.300;2023-04-01T14:31:55;5.90;;;5.13;;
3726;SDS011;1879;45.876;12.300;2023-04-01T14:34:37;6.70;;;6.20;;
3726;SDS011;1879;45.876;12.300;2023-04-01T14:40:26;5.50;;;5.10;;
3726;SDS011;1879;45.876;12.300;2023-04-01T14:43:00;6.03;;;5.63;;
3726;SDS011;1879;45.876;12.300;2023-04-01T14:45:53;6.03;;;5.53;;
3726;SDS011;1879;45.876;12.300;2023-04-01T14:48:33;5.77;;;5.37;;
3726;SDS011;1879;45.876;12.300;2023-04-01T14:51:09;5.90;;;5.40;;
3726;SDS011;1879;45.876;12.300;2023-04-01T14:53:43;6.10;;;5.60;;
3726;SDS011;1879;45.876;12.300;2023-04-01T14:56:35;6.18;;;5.50;;
3726;SDS011;1879;45.876;12.300;2023-04-01T14:59:09;5.60;;;5.10;;
3726;SDS011;1879;45.876;12.300;2023-04-01T15:01:46;5.47;;;5.07;;
3726;SDS011;1879;45.876;12.300;2023-04-01T15:07:19;5.47;;;5.07;;
3726;SDS011;1879;45.876;12.300;2023-04-01T15:10:02;5.00;;;4.50;;
3726;SDS011;1879;45.876;12.300;2023-04-01T15:12:37;4.70;;;4.40;;
3726;SDS011;1879;45.876;12.300;2023-04-01T15:15:16;5.50;;;5.10;;
3726;SDS011;1879;45.876;12.300;2023-04-01T15:18:01;5.40;;;5.00;;
3726;SDS011;1879;45.876;12.300;2023-04-01T15:20:49;5.93;;;5.23;;
3726;SDS011;1879;45.876;12.300;2023-04-01T15:23:45;4.80;;;4.50;;
3726;SDS011;1879;45.876;12.300;2023-04-01T15:26:22;5.20;;;4.80;;
3726;SDS011;1879;45.876;12.300;2023-04-01T15:29:02;6.20;;;3.93;;
3726;SDS011;1879;45.876;12.300;2023-04-01T15:31:51;4.50;;;3.83;;
3726;SDS011;1879;45.876;12.300;2023-04-01T15:34:31;4.60;;;4.20;;
3726;SDS011;1879;45.876;12.300;2023-04-01T15:37:04;5.50;;;5.10;;
3726;SDS011;1879;45.876;12.300;2023-04-01T15:39:44;4.03;;;3.63;;
3726;SDS011;1879;45.876;12.300;2023-04-01T15:42:28;3.73;;;3.43;;
3726;SDS011;1879;45.876;12.300;2023-04-01T15:45:09;4.80;;;4.27;;
3726;SDS011;1879;45.876;12.300;2023-04-01T15:47:54;4.97;;;4.50;;
3726;SDS011;1879;45.876;12.300;2023-04-01T15:50:37;7.57;;;6.97;;
3726;SDS011;1879;45.876;12.300;2023-04-01T15:53:27;7.23;;;6.70;;
3726;SDS011;1879;45.876;12.300;2023-04-01T15:56:16;6.77;;;6.13;;
3726;SDS011;1879;45.876;12.300;2023-04-01T15:59:17;7.30;;;6.70;;
3726;SDS011;1879;45.876;12.300;2023-04-01T16:01:57;7.23;;;6.63;;
3726;SDS011;1879;45.876;12.300;2023-04-01T16:04:41;5.83;;;5.33;;
3726;SDS011;1879;45.876;12.300;2023-04-01T16:07:21;6.90;;;6.40;;
3726;SDS011;1879;45.876;12.300;2023-04-01T16:10:04;7.50;;;6.70;;
3726;SDS011;1879;45.876;12.300;2023-04-01T16:12:51;7.40;;;6.80;;
3726;SDS011;1879;45.876;12.300;2023-04-01T16:15:34;7.70;;;7.00;;
3726;SDS011;1879;45.876;12.300;2023-04-01T16:18:24;7.07;;;6.47;;
3726;SDS011;1879;45.876;12.300;2023-04-01T16:21:04;9.40;;;6.57;;
3726;SDS011;1879;45.876;12.300;2023-04-01T16:23:42;7.43;;;6.73;;
3726;SDS011;1879;45.876;12.300;2023-04-01T16:26:16;7.00;;;6.40;;
3726;SDS011;1879;45.876;12.300;2023-04-01T16:28:54;7.60;;;7.00;;
3726;SDS011;1879;45.876;12.300;2023-04-01T16:31:32;8.10;;;7.17;;
3726;SDS011;1879;45.876;12.300;2023-04-01T16:34:10;7.40;;;6.70;;
3726;SDS011;1879;45.876;12.300;2023-04-01T16:36:45;8.13;;;7.50;;
3726;SDS011;1879;45.876;12.300;2023-04-01T16:39:26;8.20;;;7.50;;
3726;SDS011;1879;45.876;12.300;2023-04-01T16:42:17;8.33;;;7.27;;
3726;SDS011;1879;45.876;12.300;2023-04-01T16:44:53;8.40;;;6.90;;
3726;SDS011;1879;45.876;12.300;2023-04-01T16:47:27;7.47;;;6.77;;
3726;SDS011;1879;45.876;12.300;2023-04-01T16:50:05;7.67;;;6.97;;
3726;SDS011;1879;45.876;12.300;2023-04-01T16:52:44;7.37;;;6.67;;
3726;SDS011;1879;45.876;12.300;2023-04-01T16:55:33;7.33;;;6.53;;
3726;SDS011;1879;45.876;12.300;2023-04-01T16:58:09;7.63;;;6.93;;
3726;SDS011;1879;45.876;12.300;2023-04-01T17:00:41;8.37;;;6.87;;
3726;SDS011;1879;45.876;12.300;2023-04-01T17:03:17;8.10;;;7.30;;
3726;SDS011;1879;45.876;12.300;2023-04-01T17:05:55;9.17;;;8.27;;
3726;SDS011;1879;45.876;12.300;2023-04-01T17:08:43;9.33;;;7.90;;
3726;SDS011;1879;45.876;12.300;2023-04-01T17:11:30;8.98;;;8.15;;
3726;SDS011;1879;45.876;12.300;2023-04-01T17:14:08;9.80;;;8.18;;
3726;SDS011;1879;45.876;12.300;2023-04-01T17:16:52;10.10;;;8.20;;
3726;SDS011;1879;45.876;12.300;2023-04-01T17:19:30;10.63;;;9.53;;
3726;SDS011;1879;45.876;12.300;2023-04-01T17:22:13;8.90;;;8.00;;
3726;SDS011;1879;45.876;12.300;2023-04-01T17:24:59;8.53;;;7.63;;
3726;SDS011;1879;45.876;12.300;2023-04-01T17:27:40;8.40;;;7.60;;
3726;SDS011;1879;45.876;12.300;2023-04-01T17:30:18;9.40;;;8.50;;
3726;SDS011;1879;45.876;12.300;2023-04-01T17:32:59;10.20;;;9.20;;
3726;SDS011;1879;45.876;12.300;2023-04-01T17:35:54;9.23;;;8.43;;
3726;SDS011;1879;45.876;12.300;2023-04-01T17:41:36;14.57;;;10.97;;
3726;SDS011;1879;45.876;12.300;2023-04-01T17:44:21;11.43;;;10.13;;
3726;SDS011;1879;45.876;12.300;2023-04-01T17:47:14;11.27;;;9.80;;
3726;SDS011;1879;45.876;12.300;2023-04-01T17:49:54;11.13;;;9.33;;
3726;SDS011;1879;45.876;12.300;2023-04-01T17:52:33;11.03;;;9.93;;
3726;SDS011;1879;45.876;12.300;2023-04-01T17:55:20;10.60;;;9.60;;
3726;SDS011;1879;45.876;12.300;2023-04-01T17:58:21;11.57;;;10.43;;
3726;SDS011;1879;45.876;12.300;2023-04-01T18:01:03;11.93;;;10.63;;
3726;SDS011;1879;45.876;12.300;2023-04-01T18:06:59;11.80;;;9.47;;
3726;SDS011;1879;45.876;12.300;2023-04-01T18:09:46;12.70;;;11.47;;
3726;SDS011;1879;45.876;12.300;2023-04-01T18:12:25;12.90;;;11.50;;
3726;SDS011;1879;45.876;12.300;2023-04-01T18:18:11;11.93;;;10.57;;
3726;SDS011;1879;45.876;12.300;2023-04-01T18:21:00;11.53;;;10.43;;
3726;SDS011;1879;45.876;12.300;2023-04-01T18:23:36;25.83;;;21.67;;
3726;SDS011;1879;45.876;12.300;2023-04-01T18:26:10;15.53;;;13.40;;
3726;SDS011;1879;45.876;12.300;2023-04-01T18:28:41;12.93;;;11.63;;
3726;SDS011;1879;45.876;12.300;2023-04-01T18:31:17;13.23;;;11.93;;
3726;SDS011;1879;45.876;12.300;2023-04-01T18:33:53;12.90;;;11.70;;
3726;SDS011;1879;45.876;12.300;2023-04-01T18:36:35;12.43;;;11.20;;
3726;SDS011;1879;45.876;12.300;2023-04-01T18:39:10;14.60;;;13.10;;
3726;SDS011;1879;45.876;12.300;2023-04-01T18:41:47;12.57;;;11.37;;
3726;SDS011;1879;45.876;12.300;2023-04-01T18:44:36;13.10;;;11.30;;
3726;SDS011;1879;45.876;12.300;2023-04-01T18:47:17;12.13;;;10.90;;
3726;SDS011;1879;45.876;12.300;2023-04-01T18:49:56;12.00;;;10.90;;
3726;SDS011;1879;45.876;12.300;2023-04-01T18:52:31;13.05;;;11.27;;
3726;SDS011;1879;45.876;12.300;2023-04-01T19:00:54;14.53;;;13.03;;
3726;SDS011;1879;45.876;12.300;2023-04-01T19:03:40;14.33;;;13.00;;
3726;SDS011;1879;45.876;12.300;2023-04-01T19:06:43;14.63;;;13.23;;
3726;SDS011;1879;45.876;12.300;2023-04-01T19:09:22;16.40;;;14.80;;
3726;SDS011;1879;45.876;12.300;2023-04-01T19:11:56;19.20;;;15.87;;
3726;SDS011;1879;45.876;12.300;2023-04-01T19:14:42;18.02;;;16.10;;
3726;SDS011;1879;45.876;12.300;2023-04-01T19:17:29;18.80;;;15.13;;
3726;SDS011;1879;45.876;12.300;2023-04-01T19:20:12;15.93;;;13.60;;
3726;SDS011;1879;45.876;12.300;2023-04-01T19:22:52;14.50;;;13.03;;
3726;SDS011;1879;45.876;12.300;2023-04-01T19:25:45;14.10;;;12.70;;
3726;SDS011;1879;45.876;12.300;2023-04-01T19:28:22;13.65;;;12.45;;
3726;SDS011;1879;45.876;12.300;2023-04-01T19:30:57;17.50;;;15.25;;
3726;SDS011;1879;45.876;12.300;2023-04-01T19:33:35;16.70;;;15.03;;
3726;SDS011;1879;45.876;12.300;2023-04-01T19:36:13;17.80;;;14.30;;
3726;SDS011;1879;45.876;12.300;2023-04-01T19:38:55;14.50;;;13.10;;
3726;SDS011;1879;45.876;12.300;2023-04-01T19:41:36;15.53;;;14.10;;
3726;SDS011;1879;45.876;12.300;2023-04-01T19:44:17;14.77;;;13.30;;
3726;SDS011;1879;45.876;12.300;2023-04-01T19:46:58;16.00;;;14.40;;
3726;SDS011;1879;45.876;12.300;2023-04-01T19:49:36;16.13;;;13.65;;
3726;SDS011;1879;45.876;12.300;2023-04-01T19:52:36;17.83;;;16.03;;
3726;SDS011;1879;45.876;12.300;2023-04-01T19:55:12;16.40;;;14.80;;
3726;SDS011;1879;45.876;12.300;2023-04-01T19:57:51;16.57;;;14.97;;
3726;SDS011;1879;45.876;12.300;2023-04-01T20:00:28;18.93;;;17.13;;
3726;SDS011;1879;45.876;12.300;2023-04-01T20:03:15;15.98;;;14.38;;
3726;SDS011;1879;45.876;12.300;2023-04-01T20:05:56;17.27;;;15.60;;
3726;SDS011;1879;45.876;12.300;2023-04-01T20:08:37;19.08;;;17.27;;
3726;SDS011;1879;45.876;12.300;2023-04-01T20:11:14;17.93;;;16.23;;
3726;SDS011;1879;45.876;12.300;2023-04-01T20:13:53;18.73;;;15.33;;
3726;SDS011;1879;45.876;12.300;2023-04-01T20:16:40;20.37;;;18.17;;
3726;SDS011;1879;45.876;12.300;2023-04-01T20:19:37;22.17;;;18.23;;
3726;SDS011;1879;45.876;12.300;2023-04-01T20:22:22;22.97;;;20.50;;
3726;SDS011;1879;45.876;12.300;2023-04-01T20:24:56;19.57;;;17.50;;
3726;SDS011;1879;45.876;12.300;2023-04-01T20:27:31;27.58;;;20.67;;
3726;SDS011;1879;45.876;12.300;2023-04-01T20:30:17;25.43;;;19.10;;
3726;SDS011;1879;45.876;12.300;2023-04-01T20:33:37;22.27;;;19.33;;
3726;SDS011;1879;45.876;12.300;2023-04-01T20:36:21;20.93;;;18.77;;
3726;SDS011;1879;45.876;12.300;2023-04-01T20:39:06;21.87;;;19.60;;
3726;SDS011;1879;45.876;12.300;2023-04-01T20:42:00;20.07;;;18.03;;
3726;SDS011;1879;45.876;12.300;2023-04-01T20:44:50;20.77;;;18.77;;
3726;SDS011;1879;45.876;12.300;2023-04-01T20:47:30;20.80;;;18.40;;
3726;SDS011;1879;45.876;12.300;2023-04-01T20:50:06;20.43;;;18.03;;
3726;SDS011;1879;45.876;12.300;2023-04-01T20:52:49;21.55;;;19.30;;
3726;SDS011;1879;45.876;12.300;2023-04-01T20:55:27;20.23;;;18.20;;
3726;SDS011;1879;45.876;12.300;2023-04-01T20:58:09;22.58;;;19.17;;
3726;SDS011;1879;45.876;12.300;2023-04-01T21:00:49;20.50;;;18.43;;
3726;SDS011;1879;45.876;12.300;2023-04-01T21:03:26;18.20;;;16.50;;
3726;SDS011;1879;45.876;12.300;2023-04-01T21:06:16;18.43;;;16.53;;
3726;SDS011;1879;45.876;12.300;2023-04-01T21:09:10;21.93;;;16.90;;
3726;SDS011;1879;45.876;12.300;2023-04-01T21:11:50;18.70;;;16.83;;
3726;SDS011;1879;45.876;12.300;2023-04-01T21:14:43;18.87;;;17.07;;
3726;SDS011;1879;45.876;12.300;2023-04-01T21:17:36;19.10;;;17.20;;
3726;SDS011;1879;45.876;12.300;2023-04-01T21:20:14;19.50;;;17.50;;
3726;SDS011;1879;45.876;12.300;2023-04-01T21:23:05;19.88;;;16.90;;
3726;SDS011;1879;45.876;12.300;2023-04-01T21:25:57;18.73;;;16.90;;
3726;SDS011;1879;45.876;12.300;2023-04-01T21:28:35;19.30;;;17.30;;
3726;SDS011;1879;45.876;12.300;2023-04-01T21:31:25;17.37;;;15.37;;
3726;SDS011;1879;45.876;12.300;2023-04-01T21:37:12;18.57;;;16.67;;
3726;SDS011;1879;45.876;12.300;2023-04-01T21:43:09;22.83;;;17.48;;
3726;SDS011;1879;45.876;12.300;2023-04-01T21:45:52;18.87;;;16.50;;
3726;SDS011;1879;45.876;12.300;2023-04-01T21:49:08;18.83;;;17.10;;
3726;SDS011;1879;45.876;12.300;2023-04-01T21:51:56;18.43;;;16.63;;
3726;SDS011;1879;45.876;12.300;2023-04-01T21:54:45;19.00;;;17.20;;
3726;SDS011;1879;45.876;12.300;2023-04-01T21:57:48;18.63;;;16.73;;
3726;SDS011;1879;45.876;12.300;2023-04-01T22:00:57;18.20;;;16.40;;
3726;SDS011;1879;45.876;12.300;2023-04-01T22:03:49;20.53;;;17.60;;
3726;SDS011;1879;45.876;12.300;2023-04-01T22:06:35;18.38;;;16.38;;
3726;SDS011;1879;45.876;12.300;2023-04-01T22:09:10;19.40;;;17.47;;